Time;durP1;ratioP1;P1;durP2;ratioP2;P2;SDS_P1;SDS_P2;PMS_P1;PMS_P2;Temp;Humidity;BMP_temperature;BMP_pressure;BME280_temperature;BME280_humidity;BME280_pressure;Samples;Min_cycle;Max_cycle;Signal;HPM_P1;HPM_P2
2022/09/04 00:00:41;;;;;;;;;13.00;12.00;;;;;23.38;48.97;100607.38;4995330;28;45802;-84
2022/09/04 00:03:25;;;;;;;;;13.25;13.00;;;;;23.44;49.00;100613.78;4994867;28;45783;-84
2022/09/04 00:05:54;;;;;;;;;12.75;11.75;;;;;23.32;48.98;100605.47;4994118;28;46622;-85
2022/09/04 00:09:07;;;;;;;;;13.00;13.00;;;;;23.39;48.80;100622.41;4995056;28;45667;-85
2022/09/04 00:11:51;;;;;;;;;10.75;9.50;;;;;23.37;48.82;100626.31;4939994;28;46038;-84
2022/09/04 00:14:20;;;;;;;;;12.50;11.00;;;;;23.32;48.69;100623.38;4995097;28;45863;-85
2022/09/04 00:16:56;;;;;;;;;11.75;10.50;;;;;23.34;49.03;100634.69;4994587;28;46651;-85
2022/09/04 00:23:19;;;;;;;;;15.00;13.50;;;;;23.26;49.31;100632.16;5047796;28;45685;-86
2022/09/04 00:26:02;;;;;;;;;12.75;12.50;;;;;23.24;49.41;100642.19;4975851;28;45989;-82
2022/09/04 00:28:34;;;;;;;;;9.75;9.50;;;;;23.19;49.79;100637.44;4992789;28;45829;-86
2022/09/04 00:31:37;;;;;;;;;13.25;13.00;;;;;23.17;49.39;100646.66;4992425;28;46329;-85
2022/09/04 00:34:17;;;;;;;;;15.75;13.50;;;;;23.01;49.62;100623.66;4989614;28;45978;-87
2022/09/04 00:36:47;;;;;;;;;14.75;13.25;;;;;23.08;49.90;100635.25;4992586;28;45676;-86
2022/09/04 00:39:37;;;;;;;;;15.00;12.75;;;;;23.01;49.73;100635.19;4992334;28;45737;-83
2022/09/04 00:42:27;;;;;;;;;15.00;14.25;;;;;23.06;49.53;100644.47;4993610;28;46057;-84
2022/09/04 00:45:26;;;;;;;;;12.25;10.50;;;;;23.01;49.57;100653.88;4997125;28;45771;-86
2022/09/04 00:47:57;;;;;;;;;10.50;9.75;;;;;22.96;50.09;100653.63;4979272;28;45721;-83
2022/09/04 00:50:41;;;;;;;;;12.00;11.00;;;;;22.94;50.24;100652.19;4995637;28;47463;-86
2022/09/04 00:53:26;;;;;;;;;14.25;14.25;;;;;22.79;49.83;100638.81;4979496;28;46203;-82
2022/09/04 00:56:29;;;;;;;;;13.25;11.75;;;;;22.81;49.73;100649.34;4980106;28;45917;-83
2022/09/04 00:59:24;;;;;;;;;14.50;12.00;;;;;22.84;50.13;100657.78;4969286;28;45804;-84
2022/09/04 01:01:55;;;;;;;;;10.00;8.75;;;;;22.81;50.27;100660.03;4952423;28;45680;-84
2022/09/04 01:05:19;;;;;;;;;10.50;10.50;;;;;22.77;49.66;100656.91;4977453;28;46302;-82
2022/09/04 01:08:12;;;;;;;;;9.75;9.75;;;;;22.56;49.86;100644.25;4919053;28;45811;-82
2022/09/04 01:10:54;;;;;;;;;9.25;9.25;;;;;22.61;49.76;100657.09;4918909;28;45798;-85
2022/09/04 01:13:22;;;;;;;;;9.00;9.00;;;;;22.66;49.63;100681.38;4961551;28;46773;-84
2022/09/04 01:15:56;;;;;;;;;11.75;10.75;;;;;22.55;49.56;100669.34;4976626;28;46736;-83
2022/09/04 01:18:39;;;;;;;;;10.25;10.25;;;;;22.60;49.63;100674.94;4943075;28;45981;-84
2022/09/04 01:21:53;;;;;;;;;10.00;10.00;;;;;22.58;50.08;100663.59;4976842;28;45662;-85
2022/09/04 01:24:51;;;;;;;;;8.75;8.75;;;;;22.55;49.98;100687.19;4976805;28;46598;-86
2022/09/04 01:27:31;;;;;;;;;10.75;10.00;;;;;22.50;49.70;100693.09;4984242;28;47709;-83
2022/09/04 01:29:59;;;;;;;;;10.00;9.00;;;;;22.47;49.53;100688.09;4992126;28;45594;-84
2022/09/04 01:32:58;;;;;;;;;11.25;10.50;;;;;22.25;50.09;100656.16;4992243;28;45607;-85
2022/09/04 01:39:30;;;;;;;;;8.50;8.00;;;;;22.35;49.76;100694.09;5019535;28;45995;-86
2022/09/04 01:42:02;;;;;;;;;11.50;10.50;;;;;22.32;50.30;100697.13;5037952;28;45730;-85
2022/09/04 01:44:29;;;;;;;;;7.25;7.25;;;;;22.21;50.07;100685.06;5037961;28;45799;-87
2022/09/04 01:47:10;;;;;;;;;11.00;11.00;;;;;22.24;50.37;100697.22;5037655;28;46384;-86
2022/09/04 01:53:16;;;;;;;;;9.00;8.50;;;;;22.16;50.28;100696.28;5040796;28;45651;-87
2022/09/04 01:56:03;;;;;;;;;9.50;9.00;;;;;22.14;50.32;100697.47;5040785;28;45536;-86
2022/09/04 01:58:54;;;;;;;;;12.50;10.00;;;;;22.11;50.41;100700.50;5038393;28;45525;-86
2022/09/04 02:01:44;;;;;;;;;9.25;8.75;;;;;22.07;50.21;100707.22;5037975;28;46260;-85
2022/09/04 02:10:41;;;;;;;;;11.25;9.25;;;;;21.94;50.09;100707.81;5042387;28;45717;-87
2022/09/04 02:13:06;;;;;;;;;8.00;6.00;;;;;21.91;49.89;100708.16;5047529;28;48101;-83
2022/09/04 02:15:32;;;;;;;;;8.00;8.00;;;;;21.90;50.05;100721.69;5068367;28;45793;-85
2022/09/04 02:18:06;;;;;;;;;7.75;7.25;;;;;21.88;49.89;100716.50;5063042;28;45642;-84
2022/09/04 02:20:31;;;;;;;;;7.50;7.00;;;;;21.81;50.46;100720.91;5061840;28;45688;-86
2022/09/04 02:23:28;;;;;;;;;10.00;7.00;;;;;21.83;50.33;100720.72;5042542;28;47105;-84
2022/09/04 02:26:00;;;;;;;;;5.00;5.00;;;;;21.79;50.10;100720.25;5058122;28;45752;-85
2022/09/04 02:28:44;;;;;;;;;8.00;8.00;;;;;21.75;50.08;100729.66;5059280;28;45630;-83
2022/09/04 02:31:28;;;;;;;;;7.75;6.75;;;;;21.70;50.05;100727.47;5056560;28;45600;-85
2022/09/04 02:34:12;;;;;;;;;8.00;7.00;;;;;21.67;49.94;100735.03;5056237;28;46179;-86
2022/09/04 02:36:51;;;;;;;;;6.75;6.00;;;;;21.64;49.99;100727.38;5039726;28;45622;-87
2022/09/04 02:39:19;;;;;;;;;7.50;7.25;;;;;21.61;49.89;100733.06;5042351;28;46912;-85
2022/09/04 02:41:49;;;;;;;;;7.50;7.00;;;;;21.59;50.14;100741.22;5041935;28;47027;-86
2022/09/04 02:44:40;;;;;;;;;7.00;6.75;;;;;21.59;50.19;100743.09;5059887;28;45488;-83
2022/09/04 02:47:44;;;;;;;;;6.00;5.75;;;;;21.51;50.02;100735.13;5061626;28;45635;-82
2022/09/04 02:53:40;;;;;;;;;5.50;5.50;;;;;21.53;49.89;100751.78;5060136;28;46168;-86
2022/09/04 02:56:26;;;;;;;;;6.75;6.50;;;;;21.43;49.83;100743.19;5057011;28;45740;-85
2022/09/04 02:59:16;;;;;;;;;5.75;5.00;;;;;21.42;49.78;100750.38;5038317;28;45623;-86
2022/09/04 03:01:59;;;;;;;;;5.50;5.25;;;;;21.40;49.76;100744.38;5038819;28;45638;-84
2022/09/04 03:08:55;;;;;;;;;5.50;5.50;;;;;21.45;49.26;100747.34;4993748;28;45999;-83
2022/09/04 03:11:39;;;;;;;;;8.50;8.50;;;;;21.38;49.22;100735.69;4993559;28;45644;-85
2022/09/04 03:14:41;;;;;;;;;5.25;5.25;;;;;21.41;49.65;100754.03;4992908;28;45557;-82
2022/09/04 03:17:36;;;;;;;;;6.00;5.00;;;;;21.43;49.88;100743.19;4995146;28;45777;-87
2022/09/04 03:26:51;;;;;;;;;5.50;4.75;;;;;21.14;49.36;100730.50;4993610;28;45763;-86
2022/09/04 03:29:31;;;;;;;;;5.00;5.00;;;;;21.26;49.10;100759.28;4993141;28;46550;-83
2022/09/04 03:32:25;;;;;;;;;5.75;5.25;;;;;21.12;49.13;100748.47;4975822;28;47339;-82
2022/09/04 03:35:01;;;;;;;;;4.00;4.00;;;;;21.10;49.23;100751.34;4976693;28;46147;-83
2022/09/04 03:37:26;;;;;;;;;5.75;5.00;;;;;21.15;49.28;100753.50;4992802;28;45733;-84
2022/09/04 03:39:52;;;;;;;;;4.75;4.75;;;;;21.11;49.43;100768.97;4991980;28;47259;-82
2022/09/04 03:42:41;;;;;;;;;5.75;4.75;;;;;21.07;49.24;100758.81;5004230;28;45694;-83
2022/09/04 03:45:25;;;;;;;;;4.75;4.75;;;;;21.05;49.42;100758.19;5054228;28;45731;-82
2022/09/04 03:48:18;;;;;;;;;5.25;4.75;;;;;21.02;49.34;100755.84;5054522;28;45639;-83
2022/09/04 03:54:33;;;;;;;;;5.50;4.75;;;;;20.91;49.14;100754.41;4992252;28;46005;-84
2022/09/04 03:57:26;;;;;;;;;4.75;3.50;;;;;20.85;49.22;100760.41;4992850;28;45743;-86
2022/09/04 04:00:10;;;;;;;;;4.00;4.00;;;;;20.81;49.43;100759.09;4976537;28;45911;-85
2022/09/04 04:02:35;;;;;;;;;4.75;4.75;;;;;20.79;49.44;100763.75;4992692;28;46961;-84
2022/09/04 04:05:09;;;;;;;;;4.75;4.75;;;;;20.77;49.38;100766.59;4976304;28;46931;-85
2022/09/04 04:11:10;;;;;;;;;5.25;4.50;;;;;20.75;49.56;100771.25;4994687;28;45783;-85
2022/09/04 04:13:57;;;;;;;;;5.75;5.00;;;;;20.76;49.19;100769.44;4993835;28;45819;-83
2022/09/04 04:16:29;;;;;;;;;6.00;5.25;;;;;20.71;49.57;100775.28;5001565;28;45656;-83
2022/09/04 04:19:11;;;;;;;;;5.50;4.50;;;;;20.71;49.82;100783.25;5004021;28;46000;-85
2022/09/04 04:21:53;;;;;;;;;5.00;4.50;;;;;20.69;49.58;100781.75;5005046;28;45732;-84
2022/09/04 04:24:31;;;;;;;;;5.25;5.00;;;;;20.66;49.92;100779.44;5005766;28;46427;-84
2022/09/04 04:27:27;;;;;;;;;5.00;4.25;;;;;20.63;49.77;100772.63;5017218;28;46236;-85
2022/09/04 04:30:17;;;;;;;;;6.25;5.50;;;;;20.62;49.83;100778.13;5066330;28;45618;-81
2022/09/04 04:33:21;;;;;;;;;5.00;4.25;;;;;20.61;49.83;100779.97;5068147;28;45591;-86
2022/09/04 04:39:18;;;;;;;;;4.25;4.00;;;;;20.61;49.64;100779.13;5001596;28;46187;-85
2022/09/04 04:42:04;;;;;;;;;5.50;3.50;;;;;20.59;49.65;100779.28;5001312;28;45763;-86
2022/09/04 04:47:37;;;;;;;;;4.50;3.50;;;;;20.54;49.50;100789.63;5002176;28;45646;-84
2022/09/04 04:50:34;;;;;;;;;4.00;4.00;;;;;20.55;49.68;100793.13;4999631;28;45770;-86
2022/09/04 04:53:30;;;;;;;;;5.00;4.00;;;;;20.56;49.53;100798.28;4959258;28;46665;-86
2022/09/04 04:56:04;;;;;;;;;3.50;3.25;;;;;20.49;49.79;100786.63;4960917;28;45740;-85
2022/09/04 04:58:43;;;;;;;;;4.25;3.75;;;;;20.58;49.37;100795.41;4965256;28;45742;-85
2022/09/04 05:01:10;;;;;;;;;4.75;3.50;;;;;20.57;49.45;100802.56;4967998;28;45989;-84
2022/09/04 05:04:14;;;;;;;;;3.75;3.75;;;;;20.58;49.63;100809.56;4965155;28;45739;-85
2022/09/04 05:07:17;;;;;;;;;4.75;4.00;;;;;20.58;49.50;100804.25;4965094;28;45730;-86
2022/09/04 05:09:51;;;;;;;;;5.00;5.00;;;;;20.59;49.79;100805.06;4966661;28;46384;-85
2022/09/04 05:12:27;;;;;;;;;3.50;3.50;;;;;20.41;49.57;100783.97;4980611;28;46332;-84
2022/09/04 05:15:02;;;;;;;;;4.00;4.00;;;;;20.58;49.50;100822.03;5006511;28;45648;-83
2022/09/04 05:17:44;;;;;;;;;4.75;4.00;;;;;20.58;49.50;100824.72;5004736;28;45657;-85
2022/09/04 05:20:27;;;;;;;;;5.50;4.00;;;;;20.59;49.46;100813.06;5005559;28;45735;-86
2022/09/04 05:22:59;;;;;;;;;7.75;4.00;;;;;20.59;49.37;100815.72;5009367;28;46009;-85
2022/09/04 05:25:35;;;;;;;;;4.25;4.25;;;;;20.60;49.29;100833.38;5008064;28;45745;-86
2022/09/04 05:28:21;;;;;;;;;3.00;3.00;;;;;20.56;49.48;100826.72;5004715;28;45725;-87
2022/09/04 05:30:54;;;;;;;;;5.00;4.50;;;;;20.62;49.38;100834.03;5053502;28;46512;-88
2022/09/04 05:33:33;;;;;;;;;5.00;4.50;;;;;20.53;49.38;100826.06;5058748;28;46090;-86
2022/09/04 05:39:26;;;;;;;;;3.75;3.50;;;;;20.65;49.26;100847.84;5058756;28;45574;-86
2022/09/04 05:42:01;;;;;;;;;5.75;5.00;;;;;20.67;49.24;100851.19;5059845;28;45908;-86
2022/09/04 05:44:53;;;;;;;;;5.75;4.00;;;;;20.69;49.26;100851.81;5058411;28;46712;-85
2022/09/04 05:47:40;;;;;;;;;3.75;3.75;;;;;20.73;49.04;100853.13;5058593;28;45811;-83
2022/09/04 05:50:39;;;;;;;;;3.75;3.75;;;;;20.76;49.04;100852.81;5058980;28;45627;-84
2022/09/04 05:56:28;;;;;;;;;6.00;6.00;;;;;20.83;49.00;100864.47;4994936;28;46251;-85
2022/09/04 05:58:56;;;;;;;;;5.50;5.00;;;;;20.85;48.93;100864.28;4995002;28;45722;-84
2022/09/04 06:01:43;;;;;;;;;5.50;5.00;;;;;20.89;49.12;100866.44;4995566;28;45733;-84
2022/09/04 06:04:27;;;;;;;;;4.75;4.75;;;;;20.91;48.93;100874.25;4995157;28;46724;-86
2022/09/04 06:06:58;;;;;;;;;7.00;5.75;;;;;20.87;48.84;100862.28;4995443;28;46255;-85
2022/09/04 06:09:32;;;;;;;;;4.75;4.50;;;;;20.95;48.85;100867.59;4995776;28;45800;-84
2022/09/04 06:12:09;;;;;;;;;4.00;4.00;;;;;20.98;49.32;100875.25;4995400;28;45675;-84
2022/09/04 06:14:59;;;;;;;;;4.00;4.00;;;;;21.01;49.04;100874.06;4995455;28;45820;-84
2022/09/04 06:18:02;;;;;;;;;7.50;5.00;;;;;21.03;49.30;100870.25;4978831;28;47391;-85
2022/09/04 06:20:58;;;;;;;;;5.00;5.00;;;;;21.06;49.09;100879.72;4995147;28;45656;-84
2022/09/04 06:24:03;;;;;;;;;5.50;5.50;;;;;21.09;49.39;100879.41;4995631;28;45721;-86
2022/09/04 06:26:43;;;;;;;;;5.25;5.25;;;;;21.11;49.30;100880.03;4985217;28;47637;-82
2022/09/04 06:29:15;;;;;;;;;6.75;6.00;;;;;21.12;49.42;100893.19;5024014;28;46404;-84
2022/09/04 06:31:43;;;;;;;;;7.00;6.00;;;;;21.15;49.13;100900.91;5061962;28;45581;-83
2022/09/04 06:34:34;;;;;;;;;5.50;5.50;;;;;21.17;49.52;100898.88;5045769;28;45626;-84
2022/09/04 06:40:41;;;;;;;;;8.25;6.50;;;;;21.24;49.58;100897.22;5054806;28;45834;-86
2022/09/04 06:43:37;;;;;;;;;6.75;5.75;;;;;21.27;49.40;100909.34;5055821;28;45723;-84
2022/09/04 06:46:19;;;;;;;;;6.75;5.75;;;;;21.25;49.40;100906.03;5056866;28;45734;-84
2022/09/04 06:49:00;;;;;;;;;24.00;23.25;;;;;21.28;49.15;100911.00;5056401;28;46546;-82
2022/09/04 06:51:32;;;;;;;;;6.00;5.25;;;;;21.16;49.34;100886.56;5056128;28;46570;-85
2022/09/04 06:54:15;;;;;;;;;5.75;5.75;;;;;21.33;49.35;100914.00;5055724;28;45581;-84
2022/09/04 06:56:58;;;;;;;;;6.50;5.25;;;;;21.31;49.83;100911.53;5056003;28;45674;-82
2022/09/04 06:59:49;;;;;;;;;6.00;6.00;;;;;21.29;49.38;100904.69;5055619;28;46792;-82
2022/09/04 07:02:45;;;;;;;;;6.00;6.00;;;;;21.38;49.37;100922.31;4992851;28;45868;-83
2022/09/04 07:05:32;;;;;;;;;6.25;4.50;;;;;21.41;49.57;100918.47;4993061;28;45725;-83
2022/09/04 07:11:27;;;;;;;;;6.00;5.50;;;;;21.45;49.16;100917.97;4993099;28;45649;-84
2022/09/04 07:14:15;;;;;;;;;6.00;6.00;;;;;21.47;49.31;100923.13;4992856;28;46515;-85
2022/09/04 07:17:18;;;;;;;;;8.75;6.00;;;;;21.47;49.04;100925.81;4993136;28;45659;-82
2022/09/04 07:20:01;;;;;;;;;6.25;6.25;;;;;21.48;49.12;100933.63;4993298;28;45630;-84
2022/09/04 07:22:50;;;;;;;;;5.00;5.00;;;;;21.50;49.09;100944.94;4992474;28;46847;-84
2022/09/04 07:25:25;;;;;;;;;5.75;5.00;;;;;21.46;49.38;100930.28;4992501;28;46304;-83
2022/09/04 07:28:15;;;;;;;;;5.00;4.25;;;;;21.56;49.04;100946.94;4975924;28;45805;-82
2022/09/04 07:30:59;;;;;;;;;5.00;4.00;;;;;21.47;49.40;100926.63;4976468;28;45718;-86
2022/09/04 07:33:34;;;;;;;;;7.00;7.00;;;;;21.45;48.89;100922.47;4976131;28;47604;-84
2022/09/04 07:36:19;;;;;;;;;8.25;7.75;;;;;21.60;48.71;100944.75;4994101;28;46393;-82
2022/09/04 07:38:56;;;;;;;;;5.25;5.25;;;;;21.61;48.98;100951.75;5024758;28;45690;-84
2022/09/04 07:41:41;;;;;;;;;7.00;7.00;;;;;21.62;48.58;100950.75;5047601;28;45861;-86
2022/09/04 07:44:16;;;;;;;;;4.00;4.00;;;;;21.64;48.72;100946.91;5059462;28;45800;-84
2022/09/04 07:47:12;;;;;;;;;5.00;5.00;;;;;21.67;48.54;100951.06;5056335;28;45860;-84
2022/09/04 07:49:48;;;;;;;;;4.75;4.75;;;;;21.70;48.30;100956.06;5056599;28;45762;-86
2022/09/04 07:55:45;;;;;;;;;17.75;15.50;;;;;21.71;48.57;100957.69;5055211;28;45688;-85
2022/09/04 07:58:30;;;;;;;;;6.00;6.00;;;;;21.79;48.60;100963.03;5055066;28;45950;-84
2022/09/04 08:00:55;;;;;;;;;8.00;6.25;;;;;21.82;48.63;100967.16;5055341;28;45646;-83
2022/09/04 08:04:02;;;;;;;;;8.00;6.00;;;;;21.85;48.65;100964.16;5056186;28;45787;-83
2022/09/04 08:06:38;;;;;;;;;4.50;4.00;;;;;21.81;47.90;100961.00;4997767;28;45691;-84
2022/09/04 08:12:43;;;;;;;;;4.50;4.50;;;;;22.00;48.20;100983.81;4992549;28;45846;-83
2022/09/04 08:15:21;;;;;;;;;4.25;4.25;;;;;22.05;47.93;100979.59;4992782;28;45891;-82
2022/09/04 08:18:08;;;;;;;;;3.75;3.50;;;;;22.09;48.03;100978.25;4976010;28;48946;-82
2022/09/04 08:20:43;;;;;;;;;6.00;5.00;;;;;22.12;47.63;100987.75;4993106;28;45998;-83
2022/09/04 08:23:33;;;;;;;;;8.00;7.25;;;;;21.97;47.66;100957.47;4991281;28;45824;-82
2022/09/04 08:26:32;;;;;;;;;7.50;7.00;;;;;22.18;47.03;100979.06;4993068;28;45645;-82
2022/09/04 08:29:30;;;;;;;;;6.75;6.25;;;;;22.22;47.19;100987.53;4992444;28;45746;-83
2022/09/04 08:32:30;;;;;;;;;5.00;5.00;;;;;22.25;47.72;100977.31;4975251;28;47247;-81
2022/09/04 08:35:17;;;;;;;;;6.00;6.00;;;;;22.30;47.36;100982.97;4975583;28;46013;-84
2022/09/04 08:41:13;;;;;;;;;4.75;4.00;;;;;22.37;47.12;100989.28;5055210;28;46539;-83
2022/09/04 08:43:54;;;;;;;;;4.00;3.75;;;;;22.42;47.17;100991.41;5039411;28;47429;-82
2022/09/04 08:46:34;;;;;;;;;4.00;4.00;;;;;22.45;46.69;100986.56;5055973;28;45742;-83
2022/09/04 08:49:45;;;;;;;;;5.00;4.00;;;;;22.49;46.92;100990.53;5055012;28;45609;-84
2022/09/04 08:59:32;;;;;;;;;5.00;3.75;;;;;22.56;45.89;100988.00;5056337;28;45622;-86
2022/09/04 09:02:35;;;;;;;;;4.00;4.00;;;;;22.70;46.19;101003.25;4976864;28;45602;-85
2022/09/04 09:05:21;;;;;;;;;3.75;3.75;;;;;22.68;45.41;100991.06;4979734;28;48496;-88
2022/09/04 09:11:20;;;;;;;;;3.25;3.00;;;;;22.85;44.99;100995.31;4995857;28;45839;-83
2022/09/04 09:14:16;;;;;;;;;3.00;3.00;;;;;22.89;45.31;101004.63;4996310;28;45926;-85
2022/09/04 09:17:11;;;;;;;;;4.00;3.00;;;;;22.93;45.09;101012.13;4979881;28;47963;-88
2022/09/04 09:19:43;;;;;;;;;4.00;3.50;;;;;22.99;44.45;101006.06;4999581;28;46601;-83
2022/09/04 09:22:11;;;;;;;;;4.00;2.25;;;;;23.00;44.25;101006.88;4982659;28;45836;-84
2022/09/04 09:28:22;;;;;;;;;3.75;3.00;;;;;23.16;44.08;101009.41;4996337;28;45979;-86
2022/09/04 09:31:17;;;;;;;;;3.00;3.00;;;;;23.23;43.74;101006.84;4998200;28;46703;-84
2022/09/04 09:34:13;;;;;;;;;3.00;3.00;;;;;23.30;44.28;101007.78;4996407;28;45727;-84
2022/09/04 09:37:01;;;;;;;;;4.00;3.00;;;;;23.34;43.51;101003.72;4985823;28;45618;-85
2022/09/04 09:39:48;;;;;;;;;3.00;3.00;;;;;23.39;43.71;101010.19;5057052;28;46645;-85
2022/09/04 09:42:19;;;;;;;;;2.50;2.00;;;;;23.46;43.43;101006.81;5067242;28;46305;-86
2022/09/04 09:45:16;;;;;;;;;6.75;6.75;;;;;23.52;43.02;101009.59;5059777;28;45597;-85
2022/09/04 09:47:50;;;;;;;;;5.00;4.00;;;;;23.43;43.50;100975.88;5059934;28;45239;-85
2022/09/04 09:50:37;;;;;;;;;4.50;4.00;;;;;23.63;43.20;101005.66;5041977;28;45714;-86
2022/09/04 09:57:00;;;;;;;;;3.00;2.75;;;;;23.75;43.20;101002.31;5067867;28;45657;-88
2022/09/04 10:00:04;;;;;;;;;5.00;4.25;;;;;23.84;42.71;101006.56;5063975;28;45626;-87
2022/09/04 10:02:58;;;;;;;;;4.25;3.25;;;;;23.90;42.86;100990.78;5059023;28;45550;-86
2022/09/04 10:05:58;;;;;;;;;3.75;3.75;;;;;23.96;42.65;100993.53;5059188;28;46051;-86
2022/09/04 10:08:30;;;;;;;;;4.00;4.00;;;;;24.03;42.53;100994.44;5058539;28;45573;-83
2022/09/04 10:11:32;;;;;;;;;4.00;4.00;;;;;24.09;42.95;100995.53;5058535;28;45658;-87
2022/09/04 10:14:16;;;;;;;;;4.00;4.00;;;;;24.16;42.46;100993.78;5040930;28;46963;-85
2022/09/04 10:17:35;;;;;;;;;5.25;5.25;;;;;24.16;42.74;100985.75;5062727;28;45950;-84
2022/09/04 10:20:09;;;;;;;;;2.75;2.75;;;;;24.30;42.80;100986.75;5077639;28;45685;-85
2022/09/04 10:26:18;;;;;;;;;5.00;4.00;;;;;24.42;42.12;100985.25;5059268;28;45710;-87
2022/09/04 10:29:18;;;;;;;;;4.00;4.00;;;;;24.43;41.90;100973.50;5062307;28;45739;-81
2022/09/04 10:32:05;;;;;;;;;3.50;3.00;;;;;24.53;41.80;100976.69;5039288;28;45986;-82
2022/09/04 10:35:02;;;;;;;;;3.75;3.50;;;;;24.50;42.10;100974.41;5057912;28;45708;-83
2022/09/04 10:37:54;;;;;;;;;5.00;4.00;;;;;24.60;42.18;100981.13;5057142;28;45822;-83
2022/09/04 10:44:57;;;;;;;;;3.50;3.25;;;;;24.71;41.58;100973.59;5056803;28;45651;-82
2022/09/04 10:47:43;;;;;;;;;5.00;4.50;;;;;24.60;41.33;100942.78;5060576;28;45514;-82
2022/09/04 10:50:51;;;;;;;;;3.75;3.75;;;;;24.82;41.61;100963.19;5058773;28;46343;-82
2022/09/04 10:57:00;;;;;;;;;14.00;12.50;;;;;24.95;41.48;100960.63;4993147;28;45671;-83
2022/09/04 10:59:43;;;;;;;;;5.25;4.00;;;;;25.00;41.49;100957.34;4977021;28;45882;-82
2022/09/04 11:02:34;;;;;;;;;8.50;8.50;;;;;25.06;41.48;100960.09;4993694;28;45876;-82
2022/09/04 11:05:03;;;;;;;;;4.00;4.00;;;;;25.13;40.93;100960.16;4935179;28;45617;-85
2022/09/04 11:07:57;;;;;;;;;3.75;3.50;;;;;25.20;41.31;100962.88;4935372;28;45738;-84
2022/09/04 11:13:55;;;;;;;;;3.75;3.75;;;;;25.35;40.69;100952.88;4935567;28;45995;-84
2022/09/04 11:16:46;;;;;;;;;3.75;3.75;;;;;25.29;40.39;100934.88;4919883;28;48267;-83
2022/09/04 11:19:21;;;;;;;;;7.25;6.00;;;;;25.47;41.11;100952.13;4934798;28;45658;-84
2022/09/04 11:22:15;;;;;;;;;6.00;6.00;;;;;25.52;40.81;100959.59;4934215;28;45696;-83
2022/09/04 11:25:13;;;;;;;;;5.25;5.25;;;;;25.56;40.68;100955.50;4934811;28;45691;-82
2022/09/04 11:28:06;;;;;;;;;3.50;3.50;;;;;25.61;40.60;100954.91;4935534;28;45767;-83
2022/09/04 11:30:55;;;;;;;;;4.50;4.50;;;;;25.62;40.34;100943.16;4963459;28;45628;-85
2022/09/04 11:34:00;;;;;;;;;3.75;3.00;;;;;25.69;40.16;100944.84;4993315;28;45688;-84
2022/09/04 11:36:28;;;;;;;;;4.00;3.75;;;;;25.72;40.03;100939.06;4994145;28;46016;-85
2022/09/04 11:42:40;;;;;;;;;5.00;5.00;;;;;25.82;40.15;100941.38;5027912;28;45715;-82
2022/09/04 11:45:42;;;;;;;;;4.00;3.25;;;;;25.80;40.32;100935.41;5037114;28;45888;-84
2022/09/04 11:48:49;;;;;;;;;2.00;2.00;;;;;25.95;39.97;100933.38;5055840;28;45807;-87
2022/09/04 11:51:48;;;;;;;;;4.75;4.75;;;;;25.83;39.63;100908.13;4993491;28;47901;-85
2022/09/04 11:58:21;;;;;;;;;6.00;5.00;;;;;26.12;39.56;100939.22;4994138;28;45659;-83
2022/09/04 12:00:58;;;;;;;;;3.00;3.00;;;;;26.16;39.44;100937.78;4992885;28;46972;-83
2022/09/04 12:03:48;;;;;;;;;5.00;5.00;;;;;26.20;39.57;100934.50;4975364;28;47759;-83
2022/09/04 12:06:38;;;;;;;;;5.50;4.50;;;;;26.25;39.80;100934.72;4993255;28;45965;-82
2022/09/04 12:09:16;;;;;;;;;6.50;5.00;;;;;26.28;39.52;100926.28;5005812;28;45494;-84
2022/09/04 12:11:53;;;;;;;;;6.00;5.00;;;;;26.33;39.50;100935.59;5005036;28;45580;-85
2022/09/04 12:14:27;;;;;;;;;9.00;8.75;;;;;26.29;39.12;100919.03;4997462;28;46109;-83
2022/09/04 12:17:14;;;;;;;;;4.25;4.25;;;;;26.41;38.69;100932.69;4995578;28;45734;-85
2022/09/04 12:20:03;;;;;;;;;3.00;3.00;;;;;26.44;38.78;100926.94;4993828;28;45815;-84
2022/09/04 12:23:10;;;;;;;;;5.00;4.00;;;;;26.47;39.09;100930.03;4993442;28;45854;-86
2022/09/04 12:25:48;;;;;;;;;5.00;5.00;;;;;26.39;38.65;100903.34;4995405;28;46195;-85
2022/09/04 12:28:43;;;;;;;;;3.75;3.75;;;;;26.48;38.62;100906.66;5056405;28;45653;-85
2022/09/04 12:31:45;;;;;;;;;4.00;4.00;;;;;26.50;38.51;100902.75;5056812;28;45659;-85
2022/09/04 12:34:51;;;;;;;;;4.00;4.00;;;;;26.65;38.12;100924.06;5056907;28;46646;-86
2022/09/04 12:37:50;;;;;;;;;4.00;4.00;;;;;26.70;38.24;100917.03;5055536;28;46303;-86
2022/09/04 12:44:02;;;;;;;;;3.00;3.00;;;;;26.85;38.23;100911.44;5057758;28;45510;-83
2022/09/04 12:46:57;;;;;;;;;4.50;4.00;;;;;26.91;37.91;100917.88;5059866;28;45679;-82
2022/09/04 12:49:49;;;;;;;;;4.25;4.25;;;;;26.96;38.09;100926.13;5057815;28;46264;-83
2022/09/04 12:52:38;;;;;;;;;5.00;4.50;;;;;27.01;38.10;100919.09;5042131;28;45697;-83
2022/09/04 12:59:06;;;;;;;;;3.00;3.00;;;;;27.18;37.87;100910.59;5060225;28;45619;-85
2022/09/04 13:01:53;;;;;;;;;4.75;4.00;;;;;27.23;37.60;100905.41;5040699;28;46449;-83
2022/09/04 13:04:48;;;;;;;;;4.00;4.00;;;;;27.28;37.50;100913.66;5039678;28;45753;-85
2022/09/04 13:07:29;;;;;;;;;6.75;5.75;;;;;27.33;37.79;100909.31;5057555;28;46049;-85
2022/09/04 13:10:19;;;;;;;;;4.75;4.50;;;;;27.40;37.91;100904.75;5058084;28;46458;-84
2022/09/04 13:13:06;;;;;;;;;5.50;5.00;;;;;27.47;37.92;100899.34;5056621;28;45564;-83
2022/09/04 13:15:56;;;;;;;;;5.75;5.25;;;;;27.52;37.39;100904.94;5039038;28;45617;-84
2022/09/04 13:18:47;;;;;;;;;6.50;6.00;;;;;27.57;36.94;100902.44;5057946;28;45579;-84
2022/09/04 13:21:54;;;;;;;;;6.25;5.25;;;;;27.52;37.24;100872.63;5057249;28;45742;-83
2022/09/04 13:28:02;;;;;;;;;12.00;12.00;;;;;27.70;36.62;100888.06;5057148;28;45693;-83
2022/09/04 13:30:29;;;;;;;;;6.25;5.75;;;;;27.67;37.42;100886.66;5038726;28;45911;-83
2022/09/04 13:33:23;;;;;;;;;4.75;4.75;;;;;27.78;36.77;100883.28;5056759;28;45709;-84
2022/09/04 13:35:48;;;;;;;;;4.25;4.00;;;;;27.84;36.64;100882.44;5056659;28;45851;-84
2022/09/04 13:38:23;;;;;;;;;4.25;3.00;;;;;27.92;36.77;100879.47;5057236;28;45592;-83
2022/09/04 13:44:42;;;;;;;;;5.00;5.00;;;;;28.06;36.57;100857.84;5055403;28;45725;-82
2022/09/04 13:47:20;;;;;;;;;4.00;4.00;;;;;28.15;36.22;100865.47;5057778;28;46364;-84
2022/09/04 13:50:01;;;;;;;;;4.00;4.00;;;;;28.21;35.94;100864.63;5057362;28;45665;-84
2022/09/04 13:52:38;;;;;;;;;3.50;3.50;;;;;28.25;35.87;100852.34;5057311;28;45692;-84
2022/09/04 13:58:33;;;;;;;;;4.75;4.00;;;;;28.37;36.18;100852.47;5056296;28;45561;-85
2022/09/04 14:01:05;;;;;;;;;4.50;3.75;;;;;28.41;35.57;100847.47;5056625;28;45820;-86
2022/09/04 14:03:47;;;;;;;;;6.75;6.50;;;;;28.41;35.76;100831.28;5056605;28;45623;-85
2022/09/04 14:06:16;;;;;;;;;3.00;3.00;;;;;28.52;35.73;100830.56;5056308;28;46400;-85
2022/09/04 14:08:44;;;;;;;;;4.00;4.00;;;;;28.62;35.41;100842.50;5056619;28;45852;-85
2022/09/04 14:14:40;;;;;;;;;4.50;4.50;;;;;28.71;34.87;100835.78;5056626;28;45706;-85
2022/09/04 14:17:08;;;;;;;;;3.00;3.00;;;;;28.76;34.73;100837.84;5057088;28;46478;-85
2022/09/04 14:19:45;;;;;;;;;4.25;4.00;;;;;28.82;34.51;100831.56;5057609;28;46119;-85
2022/09/04 14:22:30;;;;;;;;;3.25;3.25;;;;;28.65;34.39;100807.00;5059361;28;45665;-85
2022/09/04 14:25:15;;;;;;;;;3.25;3.00;;;;;28.91;33.83;100835.63;5058983;28;45595;-83
2022/09/04 14:28:04;;;;;;;;;4.75;4.50;;;;;28.95;33.65;100831.41;5062301;28;46339;-84
2022/09/04 14:30:44;;;;;;;;;3.50;3.00;;;;;28.92;33.49;100818.38;5066307;28;46199;-84
2022/09/04 14:33:34;;;;;;;;;3.75;3.75;;;;;29.05;33.46;100839.81;5062593;28;45617;-84
2022/09/04 14:36:55;;;;;;;;;3.00;2.50;;;;;29.11;33.25;100836.22;5064256;28;45820;-85
2022/09/04 14:39:41;;;;;;;;;3.00;3.00;;;;;29.19;33.10;100832.41;5000352;28;46266;-84
2022/09/04 14:42:24;;;;;;;;;2.25;2.25;;;;;29.30;32.81;100828.94;4982629;28;47405;-84
2022/09/04 14:45:14;;;;;;;;;3.25;3.25;;;;;29.39;32.71;100829.50;4999779;28;45740;-84
2022/09/04 14:48:03;;;;;;;;;3.00;3.00;;;;;29.47;32.68;100823.78;4996807;28;45424;-84
2022/09/04 14:50:42;;;;;;;;;3.25;3.00;;;;;29.54;32.36;100825.34;4994731;28;45933;-90
2022/09/04 14:53:08;;;;;;;;;2.25;2.25;;;;;29.63;32.02;100819.63;4993586;28;46275;-82